createdAt,value
2019-05-02T00:00:15.380Z,17.0
2019-05-02T00:03:15.489Z,16.9
2019-05-02T00:06:14.905Z,16.9
2019-05-02T00:09:15.111Z,16.9
2019-05-02T00:12:15.731Z,16.8
2019-05-02T00:15:15.707Z,16.7
2019-05-02T00:18:15.287Z,16.7
2019-05-02T00:21:15.250Z,16.7
2019-05-02T00:24:15.635Z,16.6
2019-05-02T00:27:14.901Z,16.6
2019-05-02T00:30:15.064Z,16.6
2019-05-02T00:33:15.700Z,16.5
2019-05-02T00:36:15.146Z,16.5
2019-05-02T00:39:15.594Z,16.5
2019-05-02T00:42:17.710Z,16.5
2019-05-02T00:45:18.749Z,16.5
2019-05-02T00:48:19.229Z,16.4
2019-05-02T00:51:14.967Z,16.4
2019-05-02T00:54:19.192Z,16.4
2019-05-02T00:57:19.910Z,16.4
2019-05-02T01:00:18.404Z,16.4
2019-05-02T01:03:16.151Z,16.3
2019-05-02T01:06:15.610Z,16.2
2019-05-02T01:09:15.186Z,16.2
2019-05-02T01:12:26.227Z,16.1
2019-05-02T01:15:15.881Z,16.1
2019-05-02T01:18:15.386Z,16.0
2019-05-02T01:21:15.615Z,15.9
2019-05-02T01:24:15.605Z,15.9
2019-05-02T01:27:15.309Z,15.8
2019-05-02T01:30:15.247Z,15.8
2019-05-02T01:33:15.190Z,15.7
2019-05-02T01:42:15.577Z,15.6
2019-05-02T01:45:15.833Z,15.6
2019-05-02T01:48:15.399Z,15.6
2019-05-02T01:51:14.915Z,15.5
2019-05-02T01:54:15.375Z,15.5
2019-05-02T01:57:15.760Z,15.5
2019-05-02T02:00:15.365Z,15.5
2019-05-02T02:03:15.750Z,15.5
2019-05-02T02:06:15.434Z,15.4
2019-05-02T02:09:14.938Z,15.4
2019-05-02T02:12:15.325Z,15.4
2019-05-02T02:15:15.653Z,15.3
2019-05-02T02:18:15.621Z,15.3
2019-05-02T02:21:15.231Z,15.3
2019-05-02T02:24:15.637Z,15.2
2019-05-02T02:27:19.992Z,15.2
2019-05-02T02:30:17.495Z,15.2
2019-05-02T02:33:15.531Z,15.1
2019-05-02T02:36:15.107Z,15.1
2019-05-02T02:39:17.010Z,15.1
2019-05-02T02:42:15.511Z,15.0
2019-05-02T02:45:18.891Z,15.0
2019-05-02T02:48:15.744Z,15.0
2019-05-02T02:54:15.852Z,15.0
2019-05-02T02:57:25.665Z,15.0
2019-05-02T03:00:15.284Z,14.9
2019-05-02T03:03:20.973Z,14.9
2019-05-02T03:09:20.150Z,14.8
2019-05-02T03:12:14.986Z,14.8
2019-05-02T03:15:21.204Z,14.8
2019-05-02T03:18:14.866Z,14.8
2019-05-02T03:24:15.428Z,14.7
2019-05-02T03:30:29.413Z,14.7
2019-05-02T03:33:15.358Z,14.7
2019-05-02T03:36:28.968Z,14.7
2019-05-02T03:39:17.385Z,14.7
2019-05-02T03:42:15.587Z,14.7
2019-05-02T03:45:15.702Z,14.6
2019-05-02T03:48:18.250Z,14.6
2019-05-02T03:51:21.248Z,14.6
2019-05-02T03:54:15.059Z,14.5
2019-05-02T03:57:15.707Z,14.5
2019-05-02T04:00:21.122Z,14.4
2019-05-02T04:06:20.811Z,14.4
2019-05-02T04:09:15.100Z,14.4
2019-05-02T04:12:21.585Z,14.4
2019-05-02T04:15:15.190Z,14.4
2019-05-02T04:18:17.855Z,14.4
2019-05-02T04:21:15.906Z,14.4
2019-05-02T04:24:16.186Z,14.4
2019-05-02T04:27:15.231Z,14.4
2019-05-02T04:30:15.285Z,14.3
2019-05-02T04:33:15.634Z,14.3
2019-05-02T04:36:17.753Z,14.3
2019-05-02T04:39:20.454Z,14.3
2019-05-02T04:45:26.442Z,14.4
2019-05-02T04:48:18.230Z,14.4
2019-05-02T04:51:17.530Z,14.6
2019-05-02T04:54:23.196Z,14.7
2019-05-02T04:57:18.429Z,14.8
2019-05-02T05:00:18.471Z,15.0
2019-05-02T05:03:17.270Z,15.3
2019-05-02T05:06:14.886Z,15.6
2019-05-02T05:09:15.199Z,15.9
2019-05-02T05:12:17.664Z,16.2
2019-05-02T05:18:17.551Z,16.6
2019-05-02T05:21:17.600Z,17.0
2019-05-02T05:24:15.586Z,17.3
2019-05-02T05:27:18.834Z,17.7
2019-05-02T05:30:16.540Z,18.1
2019-05-02T05:33:15.004Z,18.5
2019-05-02T05:36:19.772Z,18.9
2019-05-02T05:39:17.605Z,19.3
2019-05-02T05:42:17.875Z,19.7
2019-05-02T05:45:15.087Z,20.2
2019-05-02T05:51:18.979Z,21.0
2019-05-02T05:54:17.733Z,21.3
2019-05-02T05:57:17.430Z,21.7
2019-05-02T06:00:22.645Z,22.2
2019-05-02T06:06:22.355Z,23.0
2019-05-02T06:09:15.352Z,23.4
2019-05-02T06:12:15.748Z,23.8
2019-05-02T06:15:15.990Z,24.3
2019-05-02T06:18:15.752Z,25.0
2019-05-02T06:21:17.087Z,25.8
2019-05-02T06:24:15.646Z,26.6
2019-05-02T06:27:15.611Z,27.3
2019-05-02T06:30:15.047Z,28.0
2019-05-02T06:33:15.567Z,28.7
2019-05-02T06:36:15.578Z,29.2
2019-05-02T06:39:15.088Z,29.7
2019-05-02T06:42:15.622Z,29.9
2019-05-02T06:45:15.266Z,30.2
2019-05-02T06:48:17.758Z,30.2
2019-05-02T06:51:19.693Z,30.4
2019-05-02T06:54:18.049Z,30.7
2019-05-02T06:57:19.079Z,31.2
2019-05-02T07:00:15.462Z,31.8
2019-05-02T07:03:15.780Z,32.5
2019-05-02T07:06:15.577Z,33.0
2019-05-02T07:09:15.292Z,33.5
2019-05-02T07:12:16.637Z,33.8
2019-05-02T07:15:15.546Z,34.1
2019-05-02T07:18:15.602Z,34.3
2019-05-02T07:21:17.846Z,34.7
2019-05-02T07:24:15.765Z,35.1
2019-05-02T07:27:15.502Z,35.5
2019-05-02T07:30:15.600Z,35.9
2019-05-02T07:33:15.124Z,36.4
2019-05-02T07:36:15.313Z,36.7
2019-05-02T07:39:14.945Z,37.0
2019-05-02T07:45:50.744Z,36.9
2019-05-02T07:48:32.331Z,36.4
2019-05-02T07:51:25.028Z,35.9
2019-05-02T07:54:29.632Z,35.7
2019-05-02T07:57:39.996Z,35.7
2019-05-02T08:00:49.658Z,35.7
2019-05-02T08:03:22.209Z,35.6
2019-05-02T08:06:34.953Z,35.5
2019-05-02T08:09:52.020Z,35.1
2019-05-02T08:12:29.580Z,34.4
2019-05-02T08:16:07.676Z,34.0
2019-05-02T08:18:15.138Z,33.6
2019-05-02T08:21:15.926Z,33.6
2019-05-02T08:24:15.430Z,33.8
2019-05-02T08:27:14.970Z,34.2
2019-05-02T08:30:15.577Z,34.6
2019-05-02T08:33:15.457Z,34.9
2019-05-02T08:36:15.184Z,35.1
2019-05-02T08:39:14.893Z,35.2
2019-05-02T08:42:15.688Z,35.2
2019-05-02T08:45:15.148Z,35.3
2019-05-02T08:48:14.948Z,35.7
2019-05-02T08:51:15.586Z,36.0
2019-05-02T08:54:15.121Z,36.3
2019-05-02T08:57:15.396Z,36.7
2019-05-02T09:00:15.557Z,37.4
2019-05-02T09:03:15.389Z,37.7
2019-05-02T09:06:17.291Z,38.3
2019-05-02T09:09:15.135Z,38.4
2019-05-02T09:12:15.674Z,38.7
2019-05-02T09:15:15.299Z,39.0
2019-05-02T09:18:16.111Z,39.1
2019-05-02T09:21:15.113Z,39.1
2019-05-02T09:24:21.146Z,39.4
2019-05-02T09:27:15.893Z,39.2
2019-05-02T09:30:17.290Z,39.3
2019-05-02T09:33:16.159Z,39.7
2019-05-02T09:36:15.932Z,40.2
2019-05-02T09:39:15.937Z,40.7
2019-05-02T09:42:18.865Z,40.8
2019-05-02T09:45:16.217Z,41.1
2019-05-02T09:48:17.217Z,41.4
2019-05-02T09:51:17.317Z,41.5
2019-05-02T09:54:15.706Z,41.7
2019-05-02T09:57:15.923Z,41.2
2019-05-02T10:00:15.679Z,40.8
2019-05-02T10:03:15.584Z,40.3
2019-05-02T10:06:18.232Z,39.8
2019-05-02T10:09:18.764Z,39.4
2019-05-02T10:12:15.894Z,38.9
2019-05-02T10:15:15.706Z,38.9
2019-05-02T10:18:19.555Z,38.5
2019-05-02T10:27:15.397Z,36.9
2019-05-02T10:30:16.047Z,37.2
2019-05-02T10:33:15.272Z,37.1
2019-05-02T10:36:19.545Z,36.8
2019-05-02T10:39:16.024Z,37.0
2019-05-02T10:42:15.882Z,37.2
2019-05-02T10:45:16.860Z,37.5
2019-05-02T10:48:27.443Z,37.4
2019-05-02T10:51:16.157Z,37.5
2019-05-02T10:54:15.284Z,37.5
2019-05-02T10:57:15.239Z,37.5
2019-05-02T11:00:16.248Z,37.0
2019-05-02T11:03:15.534Z,36.5
2019-05-02T11:06:16.098Z,36.0
2019-05-02T11:09:16.705Z,36.0
2019-05-02T11:12:16.296Z,35.9
2019-05-02T11:15:15.240Z,35.9
2019-05-02T11:18:15.745Z,36.0
2019-05-02T11:21:18.718Z,36.0
2019-05-02T11:24:15.427Z,36.0
2019-05-02T11:27:16.136Z,35.6
2019-05-02T11:30:16.876Z,34.8
2019-05-02T11:33:15.012Z,34.1
2019-05-02T11:36:15.862Z,33.5
2019-05-02T11:39:24.509Z,33.3
2019-05-02T11:42:17.745Z,33.2
2019-05-02T11:45:15.742Z,33.1
2019-05-02T11:48:15.617Z,33.0
2019-05-02T11:51:16.391Z,33.0
2019-05-02T11:54:15.055Z,32.9
2019-05-02T11:57:15.330Z,32.4
2019-05-02T12:00:15.386Z,32.1
2019-05-02T12:03:15.685Z,31.7
2019-05-02T12:06:19.531Z,31.4
2019-05-02T12:09:15.794Z,31.2
2019-05-02T12:12:15.757Z,31.3
2019-05-02T12:15:15.588Z,31.3
2019-05-02T12:18:15.637Z,31.4
2019-05-02T12:21:15.826Z,31.3
2019-05-02T12:24:15.857Z,31.2
2019-05-02T12:27:15.297Z,31.1
2019-05-02T12:30:15.027Z,30.8
2019-05-02T12:33:15.824Z,30.3
2019-05-02T12:36:15.724Z,30.1
2019-05-02T12:39:15.688Z,29.9
2019-05-02T12:42:15.288Z,29.9
2019-05-02T12:45:15.608Z,30.0
2019-05-02T12:48:15.230Z,30.0
2019-05-02T12:51:14.903Z,29.8
2019-05-02T12:54:15.420Z,29.9
2019-05-02T12:57:15.923Z,30.0
2019-05-02T13:00:18.308Z,30.1
2019-05-02T13:03:15.532Z,30.3
2019-05-02T13:06:15.864Z,30.4
2019-05-02T13:09:15.053Z,30.6
2019-05-02T13:12:15.748Z,30.5
2019-05-02T13:15:14.918Z,30.5
2019-05-02T13:18:18.745Z,30.4
2019-05-02T13:24:16.633Z,29.8
2019-05-02T13:27:15.693Z,29.6
2019-05-02T13:33:15.173Z,29.1
2019-05-02T13:36:15.454Z,28.8
2019-05-02T13:39:15.395Z,28.7
2019-05-02T13:42:15.951Z,28.5
2019-05-02T13:45:15.876Z,28.3
2019-05-02T13:48:15.375Z,28.1
2019-05-02T13:51:15.627Z,27.9
2019-05-02T13:54:15.348Z,28.1
2019-05-02T14:00:15.152Z,28.8
2019-05-02T14:03:15.673Z,28.9
2019-05-02T14:06:15.826Z,29.1
2019-05-02T14:09:19.832Z,29.2
2019-05-02T14:12:15.361Z,29.0
2019-05-02T14:15:15.544Z,28.9
2019-05-02T14:18:15.477Z,28.7
2019-05-02T14:21:14.992Z,28.3
2019-05-02T14:24:15.417Z,28.0
2019-05-02T14:27:17.272Z,27.5
2019-05-02T14:30:15.610Z,27.2
2019-05-02T14:33:15.499Z,27.0
2019-05-02T14:36:15.523Z,26.8
2019-05-02T14:39:15.741Z,26.8
2019-05-02T14:42:22.098Z,26.8
2019-05-02T14:45:27.543Z,26.8
2019-05-02T14:48:19.070Z,26.9
2019-05-02T14:51:16.761Z,26.9
2019-05-02T14:54:15.285Z,26.9
2019-05-02T14:57:17.008Z,27.0
2019-05-02T15:00:16.966Z,27.2
2019-05-02T15:03:19.066Z,27.5
2019-05-02T15:06:15.877Z,27.5
2019-05-02T15:09:16.751Z,27.4
2019-05-02T15:12:18.882Z,27.4
2019-05-02T15:15:14.941Z,27.4
2019-05-02T15:18:17.487Z,27.3
2019-05-02T15:21:16.439Z,26.9
2019-05-02T15:24:15.360Z,26.7
2019-05-02T15:27:17.652Z,26.4
2019-05-02T15:33:17.219Z,26.2
2019-05-02T15:36:15.757Z,26.1
2019-05-02T15:42:17.861Z,26.1
2019-05-02T15:45:15.800Z,26.2
2019-05-02T15:48:22.781Z,26.2
2019-05-02T15:51:15.773Z,26.2
2019-05-02T15:54:18.896Z,26.1
2019-05-02T15:57:18.926Z,26.1
2019-05-02T16:03:15.179Z,26.1
2019-05-02T16:06:16.578Z,26.0
2019-05-02T16:09:15.521Z,25.9
2019-05-02T16:12:15.065Z,25.9
2019-05-02T16:18:15.262Z,25.8
2019-05-02T16:21:18.386Z,25.7
2019-05-02T16:24:15.821Z,25.6
2019-05-02T16:27:16.346Z,25.5
2019-05-02T16:30:15.087Z,25.4
2019-05-02T16:33:19.545Z,25.3
2019-05-02T16:36:15.035Z,25.2
2019-05-02T16:42:15.340Z,25.0
2019-05-02T16:45:14.978Z,24.8
2019-05-02T16:48:14.904Z,24.7
2019-05-02T16:51:30.101Z,24.5
2019-05-02T16:54:15.736Z,24.3
2019-05-02T16:57:17.370Z,24.1
2019-05-02T17:00:15.623Z,23.9
2019-05-02T17:03:17.449Z,23.8
2019-05-02T17:06:16.952Z,23.7
2019-05-02T17:09:15.548Z,23.6
2019-05-02T17:12:15.587Z,23.5
2019-05-02T17:15:15.126Z,23.5
2019-05-02T17:18:18.100Z,23.4
2019-05-02T17:21:15.274Z,23.4
2019-05-02T17:24:17.406Z,23.3
2019-05-02T17:27:20.349Z,23.3
2019-05-02T17:30:15.470Z,23.2
2019-05-02T17:33:16.316Z,23.0
2019-05-02T17:39:14.900Z,22.8
2019-05-02T17:42:17.005Z,22.8
2019-05-02T17:45:15.944Z,22.8
2019-05-02T17:48:17.659Z,22.8
2019-05-02T17:51:15.385Z,22.8
2019-05-02T17:54:17.459Z,22.8
2019-05-02T17:57:15.123Z,22.7
2019-05-02T18:00:16.775Z,22.6
2019-05-02T18:03:15.898Z,22.5
2019-05-02T18:06:17.356Z,22.4
2019-05-02T18:09:15.706Z,22.3
2019-05-02T18:12:16.335Z,22.2
2019-05-02T18:15:15.757Z,22.1
2019-05-02T18:18:15.792Z,22.0
2019-05-02T18:21:17.226Z,21.9
2019-05-02T18:24:15.221Z,21.8
2019-05-02T18:27:15.734Z,21.7
2019-05-02T18:30:17.163Z,21.6
2019-05-02T18:33:15.005Z,21.5
2019-05-02T18:36:17.355Z,21.4
2019-05-02T18:39:14.948Z,21.3
2019-05-02T18:42:16.654Z,21.2
2019-05-02T18:45:15.484Z,21.1
2019-05-02T18:48:15.230Z,21.0
2019-05-02T18:51:17.236Z,20.9
2019-05-02T18:54:15.622Z,20.8
2019-05-02T18:57:17.090Z,20.6
2019-05-02T19:00:14.920Z,20.3
2019-05-02T19:03:17.302Z,20.1
2019-05-02T19:06:15.666Z,19.9
2019-05-02T19:09:17.518Z,19.6
2019-05-02T19:12:22.556Z,19.4
2019-05-02T19:15:15.360Z,19.2
2019-05-02T19:18:18.127Z,19.1
2019-05-02T19:21:14.855Z,19.0
2019-05-02T19:24:15.748Z,18.8
2019-05-02T19:27:15.858Z,18.7
2019-05-02T19:36:16.314Z,18.4
2019-05-02T19:39:15.753Z,18.3
2019-05-02T19:45:16.904Z,18.1
2019-05-02T19:48:15.079Z,18.1
2019-05-02T19:51:18.708Z,18.1
2019-05-02T19:54:15.996Z,18.0
2019-05-02T19:57:17.093Z,18.0
2019-05-02T20:00:15.423Z,18.0
2019-05-02T20:03:21.549Z,17.9
2019-05-02T20:06:15.742Z,17.8
2019-05-02T20:09:15.848Z,17.8
2019-05-02T20:12:15.673Z,17.8
2019-05-02T20:15:17.081Z,17.8
2019-05-02T20:18:15.767Z,17.7
2019-05-02T20:21:23.309Z,17.7
2019-05-02T20:24:19.337Z,17.6
2019-05-02T20:27:15.326Z,17.5
2019-05-02T20:30:15.423Z,17.5
2019-05-02T20:33:15.111Z,17.4
2019-05-02T20:36:15.876Z,17.3
2019-05-02T20:39:15.449Z,17.2
2019-05-02T20:42:15.103Z,17.1
2019-05-02T20:45:15.450Z,17.0
2019-05-02T20:48:15.684Z,17.0
2019-05-02T20:51:15.591Z,17.0
2019-05-02T20:54:15.322Z,16.9
2019-05-02T20:57:15.534Z,16.8
2019-05-02T21:00:15.039Z,16.8
2019-05-02T21:03:15.747Z,16.8
2019-05-02T21:06:15.253Z,16.7
2019-05-02T21:09:15.329Z,16.6
2019-05-02T21:12:15.857Z,16.6
2019-05-02T21:15:18.046Z,16.5
2019-05-02T21:18:16.194Z,16.4
2019-05-02T21:21:16.866Z,16.4
2019-05-02T21:24:16.358Z,16.3
2019-05-02T21:30:15.016Z,16.2
2019-05-02T21:33:15.563Z,16.2
2019-05-02T21:36:14.995Z,16.3
2019-05-02T21:39:15.517Z,16.3
2019-05-02T21:42:15.283Z,16.3
2019-05-02T21:45:15.266Z,16.3
2019-05-02T21:48:15.873Z,16.3
2019-05-02T21:51:14.958Z,16.3
2019-05-02T21:54:15.147Z,16.3
2019-05-02T21:57:15.796Z,16.3
2019-05-02T22:00:15.463Z,16.3
2019-05-02T22:03:15.254Z,16.2
2019-05-02T22:06:15.696Z,16.3
2019-05-02T22:09:15.747Z,16.3
2019-05-02T22:12:15.721Z,16.3
2019-05-02T22:15:14.995Z,16.3
2019-05-02T22:18:15.789Z,16.3
2019-05-02T22:21:15.382Z,16.4
2019-05-02T22:24:15.167Z,16.4
2019-05-02T22:27:15.781Z,16.5
2019-05-02T22:30:15.729Z,16.5
2019-05-02T22:33:15.502Z,16.5
2019-05-02T22:36:14.958Z,16.5
2019-05-02T22:42:15.467Z,16.5
2019-05-02T22:45:15.626Z,16.5
2019-05-02T22:48:15.406Z,16.6
2019-05-02T22:51:14.999Z,16.6
2019-05-02T22:57:15.828Z,16.6
2019-05-02T23:06:15.798Z,16.5
2019-05-02T23:09:15.330Z,16.5
2019-05-02T23:12:15.401Z,16.4
2019-05-02T23:21:15.340Z,16.4
2019-05-02T23:24:15.883Z,16.4
2019-05-02T23:27:15.812Z,16.4
2019-05-02T23:30:15.661Z,16.4
2019-05-02T23:33:14.976Z,16.4
2019-05-02T23:36:15.681Z,16.4
2019-05-02T23:39:15.137Z,16.3
2019-05-02T23:42:15.450Z,16.3
2019-05-02T23:45:14.815Z,16.3
2019-05-02T23:48:15.803Z,16.3
2019-05-02T23:51:15.799Z,16.3
2019-05-02T23:54:15.333Z,16.2
2019-05-02T23:57:15.636Z,16.2
